MST,Max TemperatureF,Mean TemperatureF,Min TemperatureF,Max Dew PointF,MeanDew PointF,Min DewpointF,Max Humidity, Mean Humidity, Min Humidity, Max Sea Level PressureIn, Mean Sea Level PressureIn, Min Sea Level PressureIn, Max VisibilityMiles, Mean VisibilityMiles, Min VisibilityMiles, Max Wind SpeedMPH, Mean Wind SpeedMPH, Max Gust SpeedMPH,PrecipitationIn, CloudCover, Events, WindDirDegrees
2012-11-1,84,74,64,70,64,61,100,79,48,29.96,29.89,29.84,14,10,3,10,7,,0.00,1,,27
2012-11-2,84,73,62,68,64,61,94,78,48,29.95,29.89,29.82,15,9,3,9,7,,0.00,2,,355
2012-11-3,84,74,64,68,65,63,94,80,55,29.94,29.89,29.84,12,10,8,10,7,,0.00,5,,347
2012-11-4,86,76,66,70,66,63,94,77,45,29.94,29.88,29.83,12,9,6,12,8,,0.00,6,,336
2012-11-5,89,79,69,75,70,64,94,78,55,29.97,29.89,29.81,12,9,6,8,5,,0.00,2,,327
2012-11-6,87,78,66,73,69,64,94,82,52,29.95,29.90,29.84,12,8,5,10,7,,0.00,4,,327
2012-11-7,86,76,66,75,70,64,100,87,62,29.95,29.88,29.82,12,8,2,10,7,,0.00,4,Fog,353
2012-11-8,87,76,66,73,70,64,100,87,62,29.95,29.89,29.81,10,6,0,10,6,,0.00,2,Fog,346
2012-11-9,86,78,69,72,71,68,100,89,62,29.91,29.87,29.80,12,5,0,10,7,,0.00,2,Fog,7
2012-11-10,87,78,69,73,71,68,100,85,58,29.94,29.87,29.79,12,7,1,12,7,,0.00,3,,337
2012-11-11,84,75,64,72,66,61,100,79,51,29.95,29.90,29.85,12,9,5,16,8,,0.00,1,Fog,315
2012-11-12,86,73,60,66,62,57,94,75,48,29.96,29.90,29.85,15,11,8,15,7,,0.00,3,,310
2012-11-13,87,74,62,66,63,61,94,75,46,29.98,29.91,29.84,10,9,8,13,6,,0.00,4,,335
2012-11-14,86,75,64,70,64,61,94,75,51,30.05,29.93,29.86,12,10,8,13,7,,0.00,1,,325
2012-11-15,84,73,62,66,63,59,94,76,48,30.00,29.94,29.88,14,10,8,12,7,,0.00,3,,334
2012-11-16,84,72,60,66,63,57,94,79,51,29.95,29.90,29.85,14,10,7,8,7,,0.00,4,,329
2012-11-17,84,73,62,72,67,61,94,84,62,30.01,29.95,29.91,10,9,6,9,7,,0.00,3,,323
2012-11-18,84,74,64,72,66,61,100,83,55,30.04,29.97,29.93,10,7,0,12,7,,0.00,3,Fog,347
2012-11-19,86,74,62,70,65,61,94,79,55,29.97,29.92,29.85,10,9,5,15,8,,0.00,3,,331
2012-11-20,82,72,62,72,67,61,94,86,70,29.92,29.87,29.80,10,8,3,10,7,,0.00,6,Fog,339
2012-11-21,87,78,69,72,69,66,94,81,49,29.98,29.92,29.87,10,8,3,14,8,,0.00,2,,349
2012-11-22,84,75,66,72,68,64,94,83,62,29.99,29.93,29.90,11,8,4,12,7,,0.00,4,,326
2012-11-23,84,75,64,72,66,63,94,78,58,29.98,29.92,29.85,12,9,5,12,7,,0.00,2,Fog,292
2012-11-24,87,74,62,66,63,61,94,75,43,29.94,29.89,29.82,15,10,8,12,8,,0.00,1,,320
2012-11-25,84,72,60,72,66,57,94,80,62,29.94,29.88,29.82,12,10,8,10,8,,0.00,4,,6
2012-11-26,84,75,66,72,68,64,94,83,62,29.99,29.93,29.88,12,10,8,14,8,,0.00,2,,339
2012-11-27,84,73,62,70,65,61,94,79,54,30.05,29.97,29.91,12,9,3,12,7,,0.00,3,Fog,348
2012-11-28,86,72,59,66,59,54,94,71,42,30.08,30.00,29.94,15,11,10,14,8,,0.00,1,,342
2012-11-29,82,70,57,63,58,54,94,73,48,30.03,29.97,29.89,15,11,10,12,8,,0.00,1,,340
2012-11-30,82,70,57,66,62,55,94,80,54,29.99,29.94,29.87,15,10,3,12,7,,0.00,1,,18